Flight Track Log - Related Links

Times and Time Zones

All times are in EDT time to prevent confusion due to time zone crossing. See the ASQ4179 flight status page for this flight to view local times or setup timezone preferences in your user account.

Time Position Orientation Groundspeed Altitude Reporting Facility
EDT Latitude Longitude Course Direction KTS MPH feet Rate Location/Type
Thu 06:16:24 AM 35.8644 -78.8164 262° West 165 190 1,300  Level Washington Center
Thu 06:17:38 AM 35.8361 -78.8614 232° Southwest 189 217 3,800 2,136 Climbing Washington Center
Thu 06:18:36 AM 35.8364 -78.9228 270° West 184 212 6,000 2,017 Climbing Washington Center
Thu 06:19:00 AM 35.8435 -79.1815 263° West  Level FlightAware Approximate
Thu 06:19:37 AM 35.8386 -78.9972 272° West 197 227 7,800  Level Washington Center
Thu 06:20:00 AM 35.8318 -79.3142 262° West  Level FlightAware Approximate
Thu 06:20:38 AM 35.8358 -79.0842 268° West 230 265 9,800  Level Washington Center
Thu 06:21:00 AM 35.8171 -79.4465 262° West  Level FlightAware Approximate
Thu 06:21:39 AM 35.8372 -79.1792 271° West 261 300 10,900  Level Washington Center
Thu 06:22:37 AM 35.8358 -79.2994 269° West 310 357 12,200 1,210 Climbing Washington Center
Thu 06:23:38 AM 35.8283 -79.4042 265° West 335 386 13,300 1,290 Climbing Washington Center
Thu 06:25:57 AM 35.7875 -79.6997 260° West 364 419 16,500 1,357 Climbing Atlanta Center
Thu 06:26:57 AM 35.7581 -79.8139 252° West 359 413 17,800 1,400 Climbing Atlanta Center
Thu 06:27:57 AM 35.7183 -79.9311 247° West 364 419 19,300 1,400 Climbing Atlanta Center
Thu 06:28:57 AM 35.6825 -80.0453 249° West 369 425 20,600 1,400 Climbing Atlanta Center
Thu 06:29:57 AM 35.6425 -80.1622 247° West 380 437 22,100 1,400 Climbing Atlanta Center
Thu 06:30:57 AM 35.6042 -80.2764 248° West 369 425 23,400 1,250 Climbing Atlanta Center
Thu 06:31:57 AM 35.5658 -80.3881 247° West 364 419 24,600 1,100 Climbing Atlanta Center
Thu 06:32:57 AM 35.5314 -80.4892 247° West 364 419 25,600 1,100 Climbing Atlanta Center
Thu 06:33:57 AM 35.4950 -80.6028 249° West 364 419 26,800 1,150 Climbing Atlanta Center
Thu 06:34:57 AM 35.4544 -80.7192 247° West 364 419 27,900 1,150 Climbing Atlanta Center
Thu 06:35:57 AM 35.4133 -80.8306 246° West 364 419 29,100 1,200 Climbing Atlanta Center
Thu 06:36:57 AM 35.3767 -80.9464 249° West 364 419 30,300 1,200 Climbing Atlanta Center
Thu 06:37:57 AM 35.3317 -81.0678 246° West 364 419 31,500 1,200 Climbing Atlanta Center
Thu 06:38:57 AM 35.3053 -81.1858 255° West 364 419 32,700 1,100 Climbing Atlanta Center
Thu 06:39:57 AM 35.2956 -81.3083 264° West 358 412 33,700 950 Climbing Atlanta Center
Thu 06:40:57 AM 35.2897 -81.4256 267° West 358 412 34,600 850 Climbing Atlanta Center
Thu 06:41:57 AM 35.2800 -81.5481 264° West 353 406 35,400 650 Climbing Atlanta Center
Thu 06:42:57 AM 35.2736 -81.6525 266° West 353 406 35,900 300 Climbing Atlanta Center
Thu 06:43:57 AM 35.2633 -81.7722 264° West 354 407 36,000 50 Climbing Atlanta Center
Thu 06:44:57 AM 35.2553 -81.9022 266° West 369 425 36,000  Level Atlanta Center
Thu 06:45:57 AM 35.2450 -82.0400 265° West 396 456 36,000  Level Atlanta Center
Thu 06:46:57 AM 35.2347 -82.1775 265° West 410 472 36,000  Level Atlanta Center
Thu 06:47:57 AM 35.2203 -82.3381 264° West 431 496 36,000  Level Atlanta Center
Thu 06:48:57 AM 35.2097 -82.4906 265° West 436 502 36,000  Level Atlanta Center
Thu 06:49:57 AM 35.1989 -82.6181 264° West 442 509 36,000  Level Atlanta Center
Thu 06:50:57 AM 35.1858 -82.7706 264° West 442 509 36,000  Level Atlanta Center
Thu 06:51:57 AM 35.1747 -82.9106 264° West 447 514 36,000  Level Atlanta Center
Thu 06:52:57 AM 35.1614 -83.0556 264° West 441 507 36,000  Level Atlanta Center
Thu 06:53:57 AM 35.1500 -83.2031 265° West 447 514 36,000  Level Atlanta Center
Thu 06:54:57 AM 35.1364 -83.3481 263° West 440 506 36,000  Level Atlanta Center
Thu 06:55:57 AM 35.1225 -83.4903 263° West 440 506 36,000  Level Atlanta Center
Thu 06:56:57 AM 35.1083 -83.6375 263° West 435 501 36,000  Level Atlanta Center
Thu 06:57:57 AM 35.0942 -83.7825 263° West 435 501 36,000  Level Atlanta Center
Thu 06:58:57 AM 35.0819 -83.9322 264° West 435 501 36,000  Level Atlanta Center
Thu 06:59:57 AM 35.0672 -84.0794 263° West 445 512 36,000  Level Atlanta Center
Thu 07:00:57 AM 35.0525 -84.2317 263° West 445 512 36,000  Level Atlanta Center
Thu 07:01:57 AM 35.0375 -84.3814 263° West 445 512 36,000  Level Atlanta Center
Thu 07:02:57 AM 35.0247 -84.5283 264° West 445 512 36,000  Level Atlanta Center
Thu 07:03:57 AM 35.0094 -84.6803 263° West 445 512 36,000  Level Atlanta Center
Thu 07:04:57 AM 34.9939 -84.8297 263° West 445 512 36,000  Level Atlanta Center
Thu 07:05:57 AM 34.9761 -84.9919 262° West 445 512 36,000  Level Atlanta Center
Thu 07:06:57 AM 34.9581 -85.1411 262° West 445 512 36,000  Level Atlanta Center
Thu 07:07:57 AM 34.8858 -85.2617 234° Southwest 436 502 36,000  Level Atlanta Center
Thu 07:08:57 AM 34.8014 -85.3744 228° Southwest 436 502 36,000  Level Atlanta Center
Thu 07:09:57 AM 34.7331 -85.4972 236° Southwest 446 513 36,000  Level Atlanta Center
Thu 07:10:57 AM 34.6753 -85.6275 242° Southwest 446 513 36,000  Level Atlanta Center
Thu 07:11:57 AM 34.6172 -85.7575 242° Southwest 441 507 36,000  Level Atlanta Center
Thu 07:12:57 AM 34.5694 -85.8703 243° Southwest 433 498 36,000  Level Atlanta Center
Thu 07:13:57 AM 34.5092 -86.0000 241° Southwest 433 498 36,000  Level Atlanta Center
Thu 07:14:57 AM 34.4506 -86.1294 241° Southwest 433 498 36,000  Level Atlanta Center
Thu 07:15:57 AM 34.3900 -86.2589 240° Southwest 433 498 36,000  Level Atlanta Center
Thu 07:16:57 AM 34.3333 -86.3858 242° Southwest 428 493 36,000  Level Atlanta Center
Thu 07:17:57 AM 34.2744 -86.5125 241° Southwest 428 493 36,000  Level Atlanta Center
Thu 07:18:57 AM 34.2156 -86.6389 241° Southwest 428 493 36,000  Level Atlanta Center
Thu 07:19:57 AM 34.1564 -86.7650 240° Southwest 428 493 36,000  Level Atlanta Center
Thu 07:20:50 AM 34.0972 -86.8956 241° Southwest 433 498 36,000  Level Memphis Center
Thu 07:21:50 AM 34.0442 -87.0156 242° Southwest 452 520 36,000  Level Memphis Center
Thu 07:22:50 AM 33.9789 -87.1508 240° Southwest 446 513 36,000  Level Memphis Center
Thu 07:23:50 AM 33.9233 -87.2656 240° Southwest 447 514 36,000  Level Memphis Center
Thu 07:24:50 AM 33.8658 -87.3903 241° Southwest 437 503 36,000  Level Memphis Center
Thu 07:25:50 AM 33.8022 -87.5225 240° Southwest 446 513 36,000  Level Memphis Center
Thu 07:26:50 AM 33.7344 -87.6644 240° Southwest 451 519 36,000  Level Memphis Center
Thu 07:27:50 AM 33.6744 -87.7911 240° Southwest 451 519 36,000  Level Memphis Center
Thu 07:28:50 AM 33.6144 -87.9203 241° Southwest 451 519 36,000  Level Memphis Center
Thu 07:29:50 AM 33.5522 -88.0514 240° Southwest 451 519 36,000  Level Memphis Center
Thu 07:30:50 AM 33.4878 -88.1803 239° Southwest 451 519 36,000  Level Memphis Center
Thu 07:31:50 AM 33.4375 -88.2961 243° Southwest 451 519 36,000  Level Memphis Center
Thu 07:32:50 AM 33.3769 -88.4244 241° Southwest 451 519 36,000  Level Memphis Center
Thu 07:33:50 AM 33.3100 -88.5575 239° Southwest 457 526 36,000  Level Memphis Center
Thu 07:34:50 AM 33.2472 -88.6906 241° Southwest 457 526 36,000  Level Memphis Center
Thu 07:35:50 AM 33.1822 -88.8208 239° Southwest 457 526 36,000  Level Memphis Center
Thu 07:36:50 AM 33.1169 -88.9533 240° Southwest 462 532 36,000  Level Memphis Center
Thu 07:37:50 AM 33.0494 -89.0883 239° Southwest 467 537 36,000  Level Memphis Center
Thu 07:38:50 AM 32.9839 -89.2206 239° Southwest 467 537 36,000  Level Memphis Center
Thu 07:39:50 AM 32.9164 -89.3550 239° Southwest 467 537 36,000  Level Memphis Center
Thu 07:40:50 AM 32.8506 -89.4867 239° Southwest 467 537 36,000  Level Memphis Center
Thu 07:41:50 AM 32.7825 -89.6158 238° Southwest 467 537 36,000  Level Memphis Center
Thu 07:42:50 AM 32.7142 -89.7500 239° Southwest 467 537 36,000  Level Memphis Center
Thu 07:43:50 AM 32.6500 -89.8811 240° Southwest 467 537 36,000  Level Memphis Center
Thu 07:44:50 AM 32.5858 -90.0097 239° Southwest 467 537 36,000  Level Memphis Center
Thu 07:45:50 AM 32.5214 -90.1381 239° Southwest 467 537 36,000  Level Memphis Center
Thu 07:46:50 AM 32.4569 -90.2636 239° Southwest 462 532 36,000  Level Memphis Center
Thu 07:47:50 AM 32.3881 -90.3942 238° Southwest 462 532 36,000  Level Memphis Center
Thu 07:48:50 AM 32.3233 -90.5172 238° Southwest 457 526 36,000  Level Memphis Center
Thu 07:49:50 AM 32.2542 -90.6497 238° Southwest 462 532 36,000  Level Memphis Center
Thu 07:51:11 AM 32.1611 -90.8325 239° Southwest 455 524 36,000  Level Houston Center
Thu 07:52:12 AM 32.0936 -90.9597 238° Southwest 456 525 36,000  Level Houston Center
Thu 07:53:13 AM 32.0264 -91.0872 238° Southwest 459 528 36,000  Level Houston Center
Thu 07:54:15 AM 31.9553 -91.2131 236° Southwest 460 529 36,000  Level Houston Center
Thu 07:55:16 AM 31.8883 -91.3386 238° Southwest 454 522 36,000  Level Houston Center
Thu 07:56:17 AM 31.8203 -91.4650 238° Southwest 456 525 36,000  Level Houston Center
Thu 07:57:19 AM 31.7522 -91.5889 237° Southwest 452 520 36,000  Level Houston Center
Thu 07:58:20 AM 31.6850 -91.7142 238° Southwest 452 520 36,000  Level Houston Center
Thu 07:59:21 AM 31.6175 -91.8394 238° Southwest 452 520 36,000  Level Houston Center
Thu 08:00:23 AM 31.5378 -91.9906 238° Southwest 452 520 36,000  Level Houston Center
Thu 08:01:24 AM 31.4667 -92.1161 236° Southwest 450 518 36,000  Level Houston Center
Thu 08:02:26 AM 31.3989 -92.2417 238° Southwest 455 524 36,000  Level Houston Center
Thu 08:03:27 AM 31.3308 -92.3633 237° Southwest 449 517 36,000  Level Houston Center
Thu 08:04:29 AM 31.2628 -92.4917 238° Southwest 460 529 36,000  Level Houston Center
Thu 08:05:30 AM 31.1931 -92.6144 236° Southwest 458 527 36,000  Level Houston Center
Thu 08:06:31 AM 31.1228 -92.7394 237° Southwest 459 528 36,000  Level Houston Center
Thu 08:07:33 AM 31.0539 -92.8631 237° Southwest 456 525 36,000  Level Houston Center
Thu 08:08:34 AM 30.9833 -92.9878 237° Southwest 460 529 36,000  Level Houston Center
Thu 08:09:36 AM 30.9133 -93.1114 237° Southwest 461 531 36,000 -146 Level Houston Center
Thu 08:10:37 AM 30.8294 -93.2611 237° Southwest 462 532 35,700 -1,024 Descending Houston Center
Thu 08:11:39 AM 30.7586 -93.3867 237° Southwest 466 536 33,900 -2,000 Descending Houston Center
Thu 08:12:40 AM 30.6889 -93.5094 237° Southwest 462 532 31,600 -2,607 Descending Houston Center
Thu 08:13:41 AM 30.6186 -93.6333 237° Southwest 466 536 28,600 -2,927 Descending Houston Center
Thu 08:14:43 AM 30.5469 -93.7594 237° Southwest 474 545 25,600 -3,122 Descending Houston Center
Thu 08:15:44 AM 30.4603 -93.9092 236° Southwest 471 542 22,200 -2,927 Descending Houston Center
Thu 08:16:46 AM 30.3908 -94.0289 236° Southwest 456 525 19,600 -2,439 Descending Houston Center
Thu 08:17:47 AM 30.3264 -94.1414 236° Southwest 427 491 17,200 -2,422 Descending Houston Center
Thu 08:18:35 AM 30.2769 -94.2258 236° Southwest 392 451 15,200 -2,390 Descending Houston Center
Thu 08:19:50 AM 30.2086 -94.3442 236° Southwest 376 433 12,300 -1,927 Descending Houston Center
Thu 08:20:52 AM 30.1681 -94.4467 245° Southwest 352 405 10,800 -1,366 Descending Houston Center
Thu 08:21:53 AM 30.1319 -94.5475 248° West 330 380 9,500 -1,220 Descending Houston Center
Thu 08:22:55 AM 30.0994 -94.6317 246° West 294 338 8,300 -732 Descending Houston Center
Thu 08:23:56 AM 30.0689 -94.7136 247° West 280 322 8,000 -146 Descending Houston Center
Thu 08:24:58 AM 30.0339 -94.8075 247° West 269 310 8,000  Level Houston Center
Thu 08:26:00 AM 30.0039 -94.8883 247° West 275 316 8,000 -49 Level Houston Center
Thu 08:27:01 AM 29.9958 -94.9756 264° West 278 320 7,900 -829 Descending Houston Center
Thu 08:28:03 AM 29.9906 -95.0611 266° West 269 310 6,300 -1,805 Descending Houston Center
Thu 08:29:04 AM 29.9942 -95.1450 273° West 266 306 4,200 -1,902 Descending Houston Center
Thu 08:30:06 AM 29.9944 -95.2164 270° West 243 280 2,400 -1,500 Descending Houston Center
Thu 08:31:08 AM 29.9933 -95.2689 269° West 199 229 1,100 -976 Descending Houston Center
Thu 08:32:09 AM 29.9933 -95.3142 270° West 166 191 400 -689 Descending Houston Center

Login

Don't have an account? Register now (free) for customized features, flight alerts, and more!